Time;durP1;ratioP1;P1;durP2;ratioP2;P2;SDS_P1;SDS_P2;PMS_P1;PMS_P2;Temp;Humidity;BMP_temperature;BMP_pressure;BME280_temperature;BME280_humidity;BME280_pressure;Samples;Min_cycle;Max_cycle;Signal;HPM_P1;HPM_P2
2023/04/10 00:01:38;;;;;;;42.72;25.42;;;5.90;89.20;;;;;;5041913;28;20405;-77
2023/04/10 00:04:04;;;;;;;45.35;24.60;;;6.10;89.40;;;;;;5046364;28;20077;-76
2023/04/10 00:06:31;;;;;;;43.85;24.67;;;6.10;89.10;;;;;;5037665;28;20409;-77
2023/04/10 00:08:57;;;;;;;42.30;24.45;;;6.10;89.00;;;;;;5045742;28;20032;-77
2023/04/10 00:11:24;;;;;;;41.10;24.08;;;6.10;89.10;;;;;;5027047;28;20072;-77
2023/04/10 00:13:49;;;;;;;40.65;25.25;;;6.20;89.00;;;;;;5045302;28;20032;-76
2023/04/10 00:16:15;;;;;;;44.45;24.23;;;6.20;89.30;;;;;;5045412;28;20147;-76
2023/04/10 00:18:40;;;;;;;41.72;23.65;;;6.20;89.10;;;;;;5045431;28;20434;-76
2023/04/10 00:21:06;;;;;;;41.30;24.65;;;6.20;89.10;;;;;;5043811;28;20037;-78
2023/04/10 00:23:33;;;;;;;39.15;24.05;;;6.20;89.30;;;;;;5043881;28;20040;-76
2023/04/10 00:25:59;;;;;;;39.90;23.95;;;6.20;89.30;;;;;;5038783;28;20052;-77
2023/04/10 00:28:24;;;;;;;37.35;23.67;;;6.20;89.30;;;;;;5044421;28;20080;-76
2023/04/10 00:30:50;;;;;;;37.35;22.83;;;6.20;89.30;;;;;;5046921;28;20033;-76
2023/04/10 00:33:15;;;;;;;41.90;24.23;;;6.20;89.10;;;;;;5045968;28;20033;-76
2023/04/10 00:35:41;;;;;;;41.20;24.60;;;6.20;89.30;;;;;;5045320;28;20375;-77
2023/04/10 00:38:06;;;;;;;41.30;22.75;;;6.10;89.30;;;;;;5041117;28;20613;-77
2023/04/10 00:40:32;;;;;;;39.60;23.98;;;6.10;89.50;;;;;;5036026;28;20453;-77
2023/04/10 00:42:58;;;;;;;41.78;23.80;;;6.10;89.50;;;;;;5038547;28;20025;-77
2023/04/10 00:45:24;;;;;;;40.97;23.60;;;6.00;89.50;;;;;;5039246;28;20328;-77
2023/04/10 00:47:49;;;;;;;39.95;23.02;;;6.00;89.70;;;;;;5045885;28;20139;-77
2023/04/10 00:50:15;;;;;;;39.85;23.55;;;6.00;89.80;;;;;;5031120;28;20033;-77
2023/04/10 00:52:40;;;;;;;37.72;21.55;;;5.90;89.80;;;;;;5026167;28;20037;-77
2023/04/10 00:55:06;;;;;;;40.38;22.25;;;5.90;90.10;;;;;;5036364;28;20041;-77
2023/04/10 00:57:32;;;;;;;37.50;23.33;;;5.90;90.00;;;;;;5046862;28;20462;-77
2023/04/10 01:00:02;;;;;;;37.55;22.67;;;5.80;89.90;;;;;;5044824;28;20154;-78
2023/04/10 01:02:28;;;;;;;37.83;23.55;;;5.80;90.20;;;;;;5041645;28;20025;-77
2023/04/10 01:04:53;;;;;;;35.40;22.58;;;5.70;90.20;;;;;;5048866;28;20113;-77
2023/04/10 01:07:37;;;;;;;36.78;22.02;;;5.70;90.30;;;;;;5047633;28;20052;-77
2023/04/10 01:10:19;;;;;;;34.40;21.27;;;5.60;90.50;;;;;;5047350;28;20029;-77
2023/04/10 01:13:26;;;;;;;40.30;23.00;;;5.70;90.70;;;;;;5041395;28;20036;-76
2023/04/10 01:16:01;;;;;;;38.60;22.25;;;5.60;90.60;;;;;;5041435;28;20115;-76
2023/04/10 01:18:36;;;;;;;36.75;22.70;;;5.60;90.80;;;;;;5045526;28;20033;-80
2023/04/10 01:21:04;;;;;;;40.58;23.88;;;5.70;91.10;;;;;;5044331;28;20028;-79
2023/04/10 01:23:35;;;;;;;44.75;25.13;;;5.80;90.80;;;;;;5037554;28;20117;-78
2023/04/10 01:26:03;;;;;;;36.97;23.10;;;5.60;90.60;;;;;;5044879;28;20123;-77
2023/04/10 01:29:07;;;;;;;39.58;22.52;;;5.70;90.70;;;;;;5048177;28;20471;-77
2023/04/10 01:31:36;;;;;;;39.25;23.58;;;5.70;90.90;;;;;;5046629;28;20315;-77
2023/04/10 01:34:07;;;;;;;39.08;23.00;;;5.80;90.90;;;;;;5047073;28;20073;-77
2023/04/10 01:36:41;;;;;;;38.15;21.95;;;5.70;90.70;;;;;;5044299;28;20076;-78
2023/04/10 01:39:08;;;;;;;39.90;23.98;;;5.80;90.80;;;;;;5039103;28;20033;-77
2023/04/10 01:41:35;;;;;;;39.65;22.98;;;5.70;90.70;;;;;;5047264;28;20100;-77
2023/04/10 01:44:03;;;;;;;41.00;24.27;;;5.80;91.00;;;;;;5043989;28;20429;-77
2023/04/10 01:46:29;;;;;;;40.03;24.02;;;5.90;90.80;;;;;;5049378;28;20444;-77
2023/04/10 01:48:57;;;;;;;36.55;23.00;;;5.90;90.70;;;;;;5046134;28;20694;-79
2023/04/10 01:51:23;;;;;;;38.28;23.35;;;6.00;90.50;;;;;;5047327;28;20029;-77
2023/04/10 01:53:50;;;;;;;37.05;21.95;;;6.00;90.50;;;;;;5046878;28;20337;-77
2023/04/10 01:56:15;;;;;;;40.40;22.67;;;6.00;90.50;;;;;;5041773;28;20528;-79
2023/04/10 01:58:41;;;;;;;37.67;23.27;;;6.10;90.30;;;;;;5046207;28;20033;-77
2023/04/10 02:01:07;;;;;;;39.53;24.55;;;6.10;90.30;;;;;;5046979;28;20438;-79
2023/04/10 02:03:32;;;;;;;39.70;24.17;;;6.10;90.30;;;;;;5047425;28;20033;-77
2023/04/10 02:06:16;;;;;;;40.97;23.05;;;6.10;90.20;;;;;;5047369;28;20112;-80
2023/04/10 02:08:54;;;;;;;39.53;23.10;;;6.10;90.10;;;;;;5040401;28;20030;-78
2023/04/10 02:11:37;;;;;;;35.60;22.70;;;6.20;89.90;;;;;;5046524;28;20036;-77
2023/04/10 02:14:06;;;;;;;34.38;21.75;;;6.10;89.90;;;;;;5045705;28;20025;-78
2023/04/10 02:16:32;;;;;;;37.85;22.95;;;6.30;89.60;;;;;;5046768;28;20108;-80
2023/04/10 02:19:00;;;;;;;39.53;23.00;;;6.30;89.40;;;;;;5028534;28;20055;-78
2023/04/10 02:21:26;;;;;;;34.72;21.55;;;6.40;89.20;;;;;;5045626;28;20096;-78
2023/04/10 02:23:52;;;;;;;34.63;21.77;;;6.40;89.00;;;;;;5040979;28;20160;-77
2023/04/10 02:26:17;;;;;;;37.40;22.98;;;6.40;88.90;;;;;;5044239;28;20156;-79
2023/04/10 02:28:43;;;;;;;39.15;22.52;;;6.40;88.80;;;;;;5043556;28;20135;-76
2023/04/10 02:31:08;;;;;;;38.08;22.13;;;6.40;88.70;;;;;;5044569;28;20091;-77
2023/04/10 02:33:33;;;;;;;35.03;21.40;;;6.50;88.60;;;;;;5042984;28;20552;-76
2023/04/10 02:36:00;;;;;;;38.67;22.20;;;6.50;88.30;;;;;;5046359;28;20048;-78
2023/04/10 02:38:26;;;;;;;36.05;21.98;;;6.50;88.50;;;;;;5043682;28;20725;-76
2023/04/10 02:40:51;;;;;;;37.33;21.65;;;6.40;88.50;;;;;;5041303;28;20442;-76
2023/04/10 02:43:17;;;;;;;32.60;21.33;;;6.40;88.30;;;;;;5042128;28;20025;-76
2023/04/10 02:45:43;;;;;;;34.45;21.55;;;6.40;88.50;;;;;;5046124;28;20365;-77
2023/04/10 02:48:09;;;;;;;33.47;20.63;;;6.30;88.60;;;;;;5041689;28;20477;-78
2023/04/10 02:50:35;;;;;;;35.47;21.35;;;6.30;88.80;;;;;;5042994;28;20025;-76
2023/04/10 02:53:01;;;;;;;37.17;21.92;;;6.20;88.70;;;;;;5041942;28;20044;-77
2023/04/10 02:55:26;;;;;;;36.47;20.83;;;6.20;88.70;;;;;;5036028;28;20064;-77
2023/04/10 02:57:52;;;;;;;34.38;20.90;;;6.20;88.80;;;;;;5040120;28;20035;-77
2023/04/10 03:00:20;;;;;;;42.70;22.98;;;6.20;88.60;;;;;;5046014;28;20095;-77
2023/04/10 03:02:46;;;;;;;35.92;22.25;;;6.20;88.70;;;;;;5034733;28;20044;-77
2023/04/10 03:05:11;;;;;;;35.60;21.58;;;6.10;88.60;;;;;;5042958;28;20335;-77
2023/04/10 03:07:37;;;;;;;35.05;21.60;;;6.10;88.60;;;;;;5040731;28;20085;-78
2023/04/10 03:10:03;;;;;;;35.33;21.35;;;6.10;88.70;;;;;;5045708;28;20139;-77
2023/04/10 03:12:28;;;;;;;36.22;21.80;;;6.10;89.00;;;;;;5024889;28;20036;-77
2023/04/10 03:14:54;;;;;;;36.92;22.67;;;6.10;88.70;;;;;;5046511;28;20394;-77
2023/04/10 03:17:19;;;;;;;35.30;21.20;;;6.10;88.50;;;;;;5038328;28;20045;-77
2023/04/10 03:19:45;;;;;;;34.20;22.00;;;6.10;88.60;;;;;;5034153;28;20033;-78
2023/04/10 03:22:10;;;;;;;36.40;21.67;;;6.10;88.60;;;;;;5035821;28;20017;-77
2023/04/10 03:24:37;;;;;;;37.40;21.88;;;6.00;88.50;;;;;;5047305;28;20037;-76
2023/04/10 03:27:02;;;;;;;34.90;21.27;;;6.00;88.60;;;;;;5034288;28;20052;-76
2023/04/10 03:29:28;;;;;;;35.28;21.63;;;6.00;88.70;;;;;;5046590;28;20492;-78
2023/04/10 03:31:53;;;;;;;36.03;21.85;;;6.10;88.70;;;;;;5042847;28;20045;-76
2023/04/10 03:34:19;;;;;;;35.75;21.48;;;6.10;88.30;;;;;;5045447;28;20041;-76
2023/04/10 03:36:45;;;;;;;35.67;21.73;;;6.00;88.30;;;;;;5025901;28;20105;-78
2023/04/10 03:39:10;;;;;;;34.97;22.48;;;6.00;88.40;;;;;;5043487;28;20040;-76
2023/04/10 03:41:36;;;;;;;36.15;21.30;;;5.90;88.40;;;;;;5042362;28;20028;-77
2023/04/10 03:44:02;;;;;;;34.53;20.48;;;6.00;88.20;;;;;;5026790;28;20025;-77
2023/04/10 03:46:28;;;;;;;33.40;21.52;;;6.00;88.20;;;;;;5040977;28;20075;-76
2023/04/10 03:48:53;;;;;;;35.28;21.15;;;6.00;88.40;;;;;;5045564;28;20045;-76
2023/04/10 03:51:19;;;;;;;36.88;22.48;;;6.00;88.20;;;;;;5026266;28;20064;-77
2023/04/10 03:53:44;;;;;;;33.58;20.52;;;5.90;88.00;;;;;;5044311;28;20078;-76
2023/04/10 03:56:10;;;;;;;32.03;19.95;;;5.80;88.10;;;;;;5042385;28;20037;-76
2023/04/10 03:58:35;;;;;;;33.10;19.83;;;5.90;88.30;;;;;;5044257;28;20124;-76
2023/04/10 04:01:01;;;;;;;36.97;20.67;;;5.90;88.10;;;;;;5051397;28;20032;-76
2023/04/10 04:03:26;;;;;;;33.08;21.20;;;5.90;88.00;;;;;;5046322;28;20137;-76
2023/04/10 04:05:52;;;;;;;35.10;20.33;;;5.90;88.10;;;;;;5045927;28;20374;-76
2023/04/10 04:08:18;;;;;;;31.33;19.83;;;5.80;88.20;;;;;;5031909;28;20444;-76
2023/04/10 04:10:43;;;;;;;32.47;21.55;;;5.80;88.30;;;;;;5044259;28;20505;-76
2023/04/10 04:13:09;;;;;;;34.35;20.17;;;5.80;88.20;;;;;;5041985;28;20117;-77
2023/04/10 04:15:34;;;;;;;34.97;21.58;;;5.80;88.10;;;;;;5041481;28;20030;-76
2023/04/10 04:18:00;;;;;;;34.72;20.63;;;5.70;88.40;;;;;;5045009;28;20037;-78
2023/04/10 04:20:25;;;;;;;36.00;21.55;;;5.80;88.10;;;;;;5032923;28;20056;-77
2023/04/10 04:22:51;;;;;;;33.35;20.25;;;5.70;88.10;;;;;;5037556;28;20040;-76
2023/04/10 04:25:18;;;;;;;32.58;20.50;;;5.70;88.30;;;;;;5039892;28;20025;-76
2023/04/10 04:27:44;;;;;;;36.90;20.48;;;5.60;88.40;;;;;;5035578;28;20155;-77
2023/04/10 04:30:10;;;;;;;33.83;21.05;;;5.60;88.50;;;;;;5040656;28;20037;-82
2023/04/10 04:32:35;;;;;;;34.65;21.13;;;5.60;88.50;;;;;;5042611;28;20093;-81
2023/04/10 04:35:01;;;;;;;33.75;20.83;;;5.60;88.50;;;;;;5050475;28;20115;-82
2023/04/10 04:37:27;;;;;;;32.85;19.20;;;5.60;88.40;;;;;;5044209;28;20128;-80
2023/04/10 04:39:52;;;;;;;35.80;20.60;;;5.60;88.50;;;;;;5046703;28;20036;-79
2023/04/10 04:42:18;;;;;;;40.42;21.75;;;5.60;88.40;;;;;;5047404;28;20032;-79
2023/04/10 04:44:43;;;;;;;36.95;21.73;;;5.60;88.60;;;;;;5042736;28;20059;-80
2023/04/10 04:47:09;;;;;;;33.08;20.15;;;5.60;88.50;;;;;;5045433;28;20473;-81
2023/04/10 04:49:34;;;;;;;37.17;21.80;;;5.60;88.60;;;;;;5046152;28;20029;-79
2023/04/10 04:52:00;;;;;;;32.45;19.73;;;5.70;88.50;;;;;;5038028;28;20465;-81
2023/04/10 04:54:25;;;;;;;35.03;21.33;;;5.60;88.50;;;;;;5041489;28;20032;-79
2023/04/10 04:56:52;;;;;;;33.92;20.38;;;5.60;88.40;;;;;;5040269;28;20046;-78
2023/04/10 04:59:17;;;;;;;34.05;20.63;;;5.60;88.50;;;;;;5047732;28;20036;-79
2023/04/10 05:01:43;;;;;;;35.83;21.15;;;5.60;88.60;;;;;;5046677;28;20053;-79
2023/04/10 05:04:08;;;;;;;34.55;21.58;;;5.60;88.60;;;;;;5047424;28;20224;-81
2023/04/10 05:06:34;;;;;;;33.28;20.85;;;5.60;88.50;;;;;;5041777;28;20090;-81
2023/04/10 05:08:59;;;;;;;35.92;21.58;;;5.60;88.40;;;;;;5046693;28;20790;-80
2023/04/10 05:11:25;;;;;;;35.25;21.02;;;5.70;88.30;;;;;;5039403;28;20033;-80
2023/04/10 05:13:50;;;;;;;34.88;20.55;;;5.70;88.30;;;;;;5049373;28;20085;-80
2023/04/10 05:16:16;;;;;;;34.40;20.67;;;5.70;88.20;;;;;;5048339;28;20048;-80
2023/04/10 05:18:41;;;;;;;33.85;20.08;;;5.70;88.10;;;;;;5044562;28;20500;-80
2023/04/10 05:21:07;;;;;;;34.08;20.92;;;5.80;88.10;;;;;;5046202;28;20079;-78
2023/04/10 05:23:32;;;;;;;31.48;19.33;;;5.80;87.90;;;;;;5038275;28;20533;-81
2023/04/10 05:25:58;;;;;;;34.08;19.58;;;5.90;87.70;;;;;;5043193;28;20137;-84
2023/04/10 05:28:23;;;;;;;34.63;20.15;;;5.90;87.70;;;;;;5044957;28;20122;-77
2023/04/10 05:30:49;;;;;;;32.17;20.67;;;6.00;87.40;;;;;;5044168;28;20064;-78
2023/04/10 05:33:14;;;;;;;30.88;20.15;;;6.10;87.20;;;;;;5048909;28;20139;-78
2023/04/10 05:35:40;;;;;;;33.78;19.73;;;6.10;87.10;;;;;;5044056;28;20182;-78
2023/04/10 05:38:05;;;;;;;32.25;19.98;;;6.10;87.00;;;;;;5042871;28;20542;-80
2023/04/10 05:40:31;;;;;;;33.70;19.23;;;6.20;86.60;;;;;;5040487;28;20049;-81
2023/04/10 05:42:56;;;;;;;27.77;18.77;;;6.30;86.40;;;;;;5048111;28;20340;-78
2023/04/10 05:45:22;;;;;;;32.88;19.15;;;6.30;86.40;;;;;;5041133;28;20041;-78
2023/04/10 05:47:47;;;;;;;31.85;18.88;;;6.40;86.30;;;;;;5042554;28;20085;-78
2023/04/10 05:50:13;;;;;;;30.25;20.13;;;6.40;86.20;;;;;;5040713;28;20635;-78
2023/04/10 05:52:38;;;;;;;32.70;19.75;;;6.50;85.60;;;;;;5045841;28;20052;-82
2023/04/10 05:55:04;;;;;;;29.33;19.35;;;6.60;85.50;;;;;;5036667;28;20088;-80
2023/04/10 05:57:30;;;;;;;32.42;19.13;;;6.60;85.50;;;;;;5034622;28;20476;-79
2023/04/10 05:59:56;;;;;;;29.70;18.85;;;6.60;85.30;;;;;;5049214;28;20066;-83
2023/04/10 06:02:21;;;;;;;30.67;18.85;;;6.70;85.00;;;;;;5037860;28;20045;-81
2023/04/10 06:04:47;;;;;;;29.13;18.58;;;6.80;84.50;;;;;;5044608;28;20536;-78
2023/04/10 06:07:12;;;;;;;29.67;18.52;;;6.80;84.60;;;;;;5039504;28;20368;-80
2023/04/10 06:09:38;;;;;;;31.15;19.77;;;6.90;84.40;;;;;;5047579;28;20041;-79
2023/04/10 06:12:03;;;;;;;28.45;17.85;;;7.00;84.20;;;;;;5040923;28;20082;-80
2023/04/10 06:14:29;;;;;;;29.58;19.55;;;7.00;84.20;;;;;;5046948;28;20091;-80
2023/04/10 06:16:55;;;;;;;28.63;19.98;;;7.10;83.90;;;;;;5048940;28;20029;-82
2023/04/10 06:19:20;;;;;;;27.80;18.52;;;7.20;83.80;;;;;;5048659;28;20032;-81
2023/04/10 06:21:46;;;;;;;29.98;17.73;;;7.30;83.50;;;;;;5044301;28;20044;-81
2023/04/10 06:24:12;;;;;;;29.48;19.80;;;7.40;82.60;;;;;;5046286;28;20102;-80
2023/04/10 06:26:38;;;;;;;29.85;19.23;;;7.40;82.90;;;;;;5040673;28;20263;-81
2023/04/10 06:29:03;;;;;;;28.15;18.40;;;7.50;81.50;;;;;;5045242;28;20211;-80
2023/04/10 06:31:32;;;;;;;26.40;18.27;;;7.70;82.00;;;;;;5041204;28;20040;-80
2023/04/10 06:33:57;;;;;;;27.55;17.42;;;7.80;81.20;;;;;;5047269;28;20410;-80
2023/04/10 06:36:23;;;;;;;24.80;17.42;;;8.00;81.00;;;;;;5045674;28;20151;-80
2023/04/10 06:38:48;;;;;;;26.10;17.13;;;8.10;81.00;;;;;;5039434;28;20033;-80
2023/04/10 06:41:14;;;;;;;24.95;17.08;;;8.30;80.30;;;;;;5040682;28;20054;-80
2023/04/10 06:43:39;;;;;;;26.10;17.48;;;8.40;79.50;;;;;;5044041;28;20056;-81
2023/04/10 06:46:05;;;;;;;27.92;17.25;;;8.50;78.70;;;;;;5046678;28;20040;-80
2023/04/10 06:48:31;;;;;;;24.50;16.25;;;8.60;78.70;;;;;;5045492;28;20045;-80
2023/04/10 06:50:59;;;;;;;23.63;16.63;;;8.60;78.70;;;;;;5041934;28;20438;-81
2023/04/10 06:53:25;;;;;;;24.33;16.70;;;8.70;78.40;;;;;;5043050;28;20025;-80
2023/04/10 06:55:50;;;;;;;25.23;16.83;;;8.70;77.90;;;;;;5043469;28;20036;-80
2023/04/10 06:58:16;;;;;;;22.48;15.57;;;8.80;77.80;;;;;;5041157;28;20041;-81
2023/04/10 07:00:42;;;;;;;25.20;16.95;;;8.90;77.70;;;;;;5040384;28;20407;-80
2023/04/10 07:03:07;;;;;;;25.70;16.60;;;9.00;77.40;;;;;;5040518;28;20029;-80
2023/04/10 07:05:33;;;;;;;23.65;15.18;;;9.00;76.80;;;;;;5040832;28;20120;-80
2023/04/10 07:07:58;;;;;;;22.80;15.45;;;9.10;76.10;;;;;;5039974;28;20116;-80
2023/04/10 07:10:24;;;;;;;24.88;16.20;;;9.10;76.10;;;;;;5044651;28;20036;-81
2023/04/10 07:12:49;;;;;;;23.27;15.57;;;9.30;75.50;;;;;;5037429;28;20025;-79
2023/04/10 07:15:15;;;;;;;25.33;16.38;;;9.30;75.70;;;;;;5042615;28;20079;-79
2023/04/10 07:17:41;;;;;;;22.77;15.88;;;9.50;75.60;;;;;;5024061;28;20485;-80
2023/04/10 07:20:07;;;;;;;21.70;15.50;;;9.70;75.60;;;;;;5043982;28;20157;-80
2023/04/10 07:22:33;;;;;;;23.80;14.75;;;9.80;74.70;;;;;;5037608;28;20421;-81
2023/04/10 07:25:01;;;;;;;19.65;13.40;;;9.90;73.80;;;;;;5041812;28;20052;-79
2023/04/10 07:27:27;;;;;;;23.05;14.20;;;10.00;73.40;;;;;;5044007;28;20072;-83
2023/04/10 07:29:54;;;;;;;23.13;14.63;;;10.20;72.60;;;;;;5047967;28;20072;-86
2023/04/10 07:32:20;;;;;;;23.63;15.38;;;10.30;72.60;;;;;;5046616;28;20101;-84
2023/04/10 07:34:46;;;;;;;21.45;14.55;;;10.40;72.00;;;;;;5044781;28;20427;-86
2023/04/10 07:37:11;;;;;;;21.38;13.95;;;10.50;71.70;;;;;;5041048;28;20094;-86
2023/04/10 07:39:37;;;;;;;19.98;13.50;;;10.60;70.90;;;;;;5039094;28;20059;-85
2023/04/10 07:42:02;;;;;;;19.88;13.00;;;10.70;69.50;;;;;;5041316;28;20054;-86
2023/04/10 07:44:28;;;;;;;20.92;13.25;;;11.00;69.70;;;;;;5046933;28;20037;-85
2023/04/10 07:46:54;;;;;;;20.08;13.50;;;11.20;69.40;;;;;;5037804;28;20070;-88
2023/04/10 07:49:20;;;;;;;20.25;13.25;;;11.10;68.20;;;;;;5042624;28;20090;-87
2023/04/10 07:51:45;;;;;;;18.55;12.88;;;11.30;67.50;;;;;;5043860;28;20077;-84
2023/04/10 07:54:11;;;;;;;18.80;13.50;;;11.40;66.80;;;;;;5045195;28;20044;-87
2023/04/10 07:56:36;;;;;;;18.42;12.60;;;11.50;66.30;;;;;;5047242;28;20112;-86
2023/04/10 07:59:02;;;;;;;16.92;12.90;;;11.70;66.80;;;;;;5048078;28;20052;-87
2023/04/10 08:01:28;;;;;;;18.27;12.88;;;12.00;66.60;;;;;;5053416;28;20037;-88
2023/04/10 08:03:54;;;;;;;18.13;13.15;;;12.10;64.80;;;;;;5049517;28;20501;-86
2023/04/10 08:06:20;;;;;;;16.70;12.38;;;12.10;64.20;;;;;;5040713;28;20037;-87
2023/04/10 08:08:46;;;;;;;16.33;11.75;;;12.50;64.70;;;;;;5044167;28;20033;-87
2023/04/10 08:11:32;;;;;;;18.02;12.48;;;12.60;63.80;;;;;;5026388;28;20123;-87
2023/04/10 08:14:04;;;;;;;16.88;11.75;;;12.80;63.60;;;;;;5050406;28;20029;-88
2023/04/10 08:16:32;;;;;;;16.20;12.07;;;13.10;61.70;;;;;;5048719;28;20090;-86
2023/04/10 08:18:59;;;;;;;15.32;11.30;;;13.50;61.90;;;;;;5046845;28;20037;-87
2023/04/10 08:21:26;;;;;;;16.42;11.75;;;13.60;60.60;;;;;;5046041;28;20029;-87
2023/04/10 08:23:53;;;;;;;16.73;11.23;;;13.70;59.70;;;;;;5044472;28;20454;-87
2023/04/10 08:26:20;;;;;;;15.18;11.25;;;13.60;59.30;;;;;;5044279;28;20059;-88
2023/04/10 08:28:50;;;;;;;14.93;11.05;;;13.80;59.40;;;;;;5046837;28;20032;-86
2023/04/10 08:31:16;;;;;;;14.27;10.50;;;14.10;60.30;;;;;;5043413;28;20184;-87
2023/04/10 08:33:42;;;;;;;17.20;10.55;;;14.30;58.00;;;;;;5048169;28;20072;-86
2023/04/10 08:36:08;;;;;;;13.18;9.90;;;13.90;58.60;;;;;;5046620;28;20010;-88
2023/04/10 08:38:34;;;;;;;14.48;10.60;;;14.40;57.80;;;;;;5047272;28;20036;-87
2023/04/10 08:40:59;;;;;;;13.02;9.95;;;14.40;55.90;;;;;;5062878;28;20052;-86
2023/04/10 08:43:25;;;;;;;16.70;10.65;;;14.60;56.70;;;;;;5054534;28;20644;-84
2023/04/10 08:45:51;;;;;;;15.13;10.23;;;14.20;57.00;;;;;;5062669;28;20032;-87
2023/04/10 08:48:19;;;;;;;14.63;11.00;;;14.50;57.40;;;;;;5060923;28;20060;-84
2023/04/10 08:50:45;;;;;;;14.77;11.05;;;14.50;57.00;;;;;;5047625;28;20048;-82
2023/04/10 08:53:13;;;;;;;14.25;10.40;;;14.60;55.40;;;;;;5056978;28;20033;-87
2023/04/10 08:55:40;;;;;;;14.75;11.43;;;14.80;54.60;;;;;;5069041;22;20056;-85
2023/04/10 08:58:07;;;;;;;14.20;10.70;;;14.90;55.20;;;;;;5032334;28;20471;-85
2023/04/10 09:00:34;;;;;;;13.10;10.00;;;15.10;55.10;;;;;;5031201;28;20128;-85
2023/04/10 09:03:03;;;;;;;15.80;10.27;;;15.40;55.70;;;;;;5035880;28;20026;-87
2023/04/10 09:05:29;;;;;;;15.85;10.70;;;15.50;54.80;;;;;;5048148;28;20030;-90
2023/04/10 09:07:55;;;;;;;13.07;10.07;;;15.80;54.00;;;;;;5037860;28;20040;-87
2023/04/10 09:10:22;;;;;;;15.13;11.00;;;15.50;53.00;;;;;;5035186;28;20029;-87
2023/04/10 09:12:48;;;;;;;13.75;9.95;;;15.40;52.50;;;;;;5033118;28;20029;-85
2023/04/10 09:15:14;;;;;;;12.90;8.95;;;15.50;53.60;;;;;;5039084;28;20037;-85
2023/04/10 09:18:00;;;;;;;13.88;9.90;;;15.90;53.50;;;;;;5039402;28;20056;-88
2023/04/10 09:20:28;;;;;;;13.45;9.70;;;15.80;52.10;;;;;;5040364;28;20301;-85
2023/04/10 09:22:54;;;;;;;12.05;9.23;;;16.10;51.10;;;;;;5040879;28;20021;-86
2023/04/10 09:25:35;;;;;;;12.75;9.63;;;16.00;51.30;;;;;;5034046;28;20069;-86
2023/04/10 09:28:03;;;;;;;17.92;9.32;;;16.00;51.70;;;;;;5035135;28;20437;-87
2023/04/10 09:30:55;;;;;;;15.90;9.98;;;16.00;51.40;;;;;;5037669;28;20040;-86
2023/04/10 09:33:26;;;;;;;12.85;9.38;;;16.30;51.50;;;;;;5053338;28;20034;-87
2023/04/10 09:35:53;;;;;;;13.10;9.60;;;16.00;50.20;;;;;;5038252;28;20025;-86
2023/04/10 09:38:20;;;;;;;13.85;9.07;;;15.80;50.70;;;;;;5032659;28;20148;-88
2023/04/10 09:40:46;;;;;;;11.50;9.23;;;16.10;50.70;;;;;;5053138;28;20118;-85
2023/04/10 09:43:24;;;;;;;13.23;9.23;;;16.30;49.00;;;;;;5044026;28;20121;-85
2023/04/10 09:45:55;;;;;;;11.48;8.07;;;16.10;49.40;;;;;;5034779;28;20075;-87
2023/04/10 09:48:21;;;;;;;;;;;16.70;49.70;;;;;;5031284;28;20093;-87
2023/04/10 09:50:47;;;;;;;10.55;7.70;;;16.50;47.00;;;;;;5040782;28;19981;-87
2023/04/10 09:53:15;;;;;;;12.15;8.45;;;16.50;48.00;;;;;;5040752;28;20195;-87
2023/04/10 09:55:42;;;;;;;14.35;8.63;;;16.50;48.20;;;;;;5053658;28;20276;-87
2023/04/10 09:58:08;;;;;;;12.63;8.88;;;16.90;48.00;;;;;;5039301;28;20036;-87
2023/04/10 10:00:42;;;;;;;12.32;8.40;;;16.80;47.60;;;;;;5040542;28;20170;-91
2023/04/10 10:03:16;;;;;;;12.10;8.45;;;16.80;47.80;;;;;;5047118;28;20079;-88
2023/04/10 10:05:44;;;;;;;10.13;7.93;;;16.80;47.50;;;;;;5037704;28;20021;-87
2023/04/10 10:08:11;;;;;;;11.55;7.97;;;17.00;46.70;;;;;;5036148;28;20036;-87
2023/04/10 10:10:45;;;;;;;10.68;7.80;;;17.30;47.10;;;;;;5052396;28;20064;-87
2023/04/10 10:13:18;;;;;;;12.05;7.55;;;17.40;47.00;;;;;;5036412;28;20123;-87
2023/04/10 10:15:53;;;;;;;11.35;7.38;;;17.40;44.70;;;;;;5051460;28;20029;-85
2023/04/10 10:18:35;;;;;;;13.05;7.68;;;17.20;44.90;;;;;;5035349;28;20067;-86
2023/04/10 10:21:02;;;;;;;10.57;7.75;;;17.30;46.10;;;;;;5027240;28;20077;-89
2023/04/10 10:23:30;;;;;;;12.07;6.82;;;17.20;45.80;;;;;;5024002;28;20135;-85
2023/04/10 10:25:59;;;;;;;12.82;8.52;;;17.60;45.80;;;;;;5028475;28;20029;-87
2023/04/10 10:28:26;;;;;;;10.25;6.60;;;17.60;45.30;;;;;;5028327;28;20036;-84
2023/04/10 10:30:53;;;;;;;9.20;6.47;;;17.90;45.10;;;;;;5040482;28;20037;-84
2023/04/10 10:33:19;;;;;;;9.23;6.75;;;18.30;43.20;;;;;;5011232;28;20042;-84
2023/04/10 10:35:45;;;;;;;8.57;6.20;;;18.30;42.40;;;;;;5025068;28;20384;-85
2023/04/10 10:38:11;;;;;;;9.25;6.15;;;17.50;41.70;;;;;;5027368;28;20540;-84
2023/04/10 10:40:46;;;;;;;10.07;6.53;;;17.80;42.50;;;;;;5027361;28;20032;-85
2023/04/10 10:43:41;;;;;;;9.20;6.75;;;17.70;42.60;;;;;;5047731;28;20433;-83
2023/04/10 10:46:11;;;;;;;8.18;6.20;;;18.40;44.00;;;;;;5050296;28;20543;-84
2023/04/10 10:48:36;;;;;;;8.57;6.27;;;18.30;42.70;;;;;;5048895;28;20115;-85
2023/04/10 10:51:03;;;;;;;9.55;5.93;;;18.00;42.50;;;;;;5026359;28;20023;-84
2023/04/10 10:53:44;;;;;;;8.85;6.38;;;17.60;43.30;;;;;;5025734;28;20063;-85
2023/04/10 10:56:18;;;;;;;7.60;5.72;;;18.10;42.50;;;;;;5029003;28;20139;-84
2023/04/10 10:58:51;;;;;;;9.80;6.65;;;18.10;43.10;;;;;;5047031;28;20043;-84
2023/04/10 11:01:17;;;;;;;8.25;5.95;;;18.50;44.30;;;;;;5047335;28;20045;-84
2023/04/10 11:03:44;;;;;;;8.70;6.13;;;18.60;41.30;;;;;;5046449;28;20440;-84
2023/04/10 11:06:11;;;;;;;7.35;5.28;;;18.50;40.20;;;;;;5053450;28;20047;-84
2023/04/10 11:08:47;;;;;;;8.82;5.88;;;18.70;40.40;;;;;;5029032;28;20032;-85
2023/04/10 11:11:18;;;;;;;8.23;5.95;;;18.30;39.60;;;;;;5025756;28;20033;-84
2023/04/10 11:13:56;;;;;;;9.13;6.22;;;18.10;40.30;;;;;;5046843;28;20051;-85
2023/04/10 11:16:43;;;;;;;7.45;5.20;;;18.50;40.30;;;;;;5021492;28;20422;-84
2023/04/10 11:19:11;;;;;;;8.35;5.28;;;18.80;41.60;;;;;;5041519;28;20043;-84
2023/04/10 11:22:00;;;;;;;9.23;5.68;;;19.40;40.40;;;;;;5038469;28;20035;-85
2023/04/10 11:24:26;;;;;;;13.60;5.45;;;18.90;39.20;;;;;;5041692;28;20119;-86
2023/04/10 11:26:51;;;;;;;7.07;5.38;;;18.40;38.90;;;;;;5022089;28;20021;-85
2023/04/10 11:29:17;;;;;;;8.73;4.97;;;18.10;40.70;;;;;;5042239;28;20124;-86
2023/04/10 11:31:53;;;;;;;7.57;5.53;;;18.60;39.60;;;;;;5042030;28;20614;-85
2023/04/10 11:34:19;;;;;;;7.00;4.93;;;19.40;39.10;;;;;;5040723;28;20032;-84
2023/04/10 11:36:45;;;;;;;7.43;5.43;;;19.10;39.30;;;;;;5042734;28;20024;-85
2023/04/10 11:39:12;;;;;;;6.97;4.90;;;19.00;39.90;;;;;;5038145;28;20028;-85
2023/04/10 11:41:40;;;;;;;6.90;4.32;;;19.40;39.20;;;;;;5038987;28;20053;-84
2023/04/10 11:44:11;;;;;;;7.35;4.78;;;19.40;36.90;;;;;;5048356;28;20025;-84
2023/04/10 11:46:42;;;;;;;8.75;4.40;;;19.40;36.30;;;;;;5026132;28;20108;-85
2023/04/10 11:49:08;;;;;;;8.30;5.00;;;19.40;36.20;;;;;;5022286;28;20048;-85
2023/04/10 11:51:34;;;;;;;7.88;4.55;;;19.30;36.70;;;;;;5044016;28;20030;-85
2023/04/10 11:54:23;;;;;;;7.72;4.88;;;19.00;37.60;;;;;;5025030;28;20122;-83
2023/04/10 11:57:03;;;;;;;7.05;5.25;;;19.30;37.60;;;;;;5046516;28;20345;-84
2023/04/10 11:59:30;;;;;;;6.88;4.57;;;19.50;37.10;;;;;;5046487;28;20033;-85
2023/04/10 12:02:13;;;;;;;7.15;5.20;;;19.70;36.40;;;;;;5040573;28;20021;-84
2023/04/10 12:04:39;;;;;;;8.50;5.43;;;19.80;36.50;;;;;;5045208;28;20039;-85
2023/04/10 12:07:05;;;;;;;13.15;5.00;;;19.70;37.20;;;;;;5022702;28;20108;-84
2023/04/10 12:09:30;;;;;;;8.63;5.55;;;19.50;37.20;;;;;;5039190;28;20025;-85
2023/04/10 12:12:02;;;;;;;8.70;4.55;;;19.50;37.00;;;;;;5027380;28;20422;-84
2023/04/10 12:14:35;;;;;;;7.60;4.75;;;20.00;36.20;;;;;;5031933;28;20389;-85
2023/04/10 12:17:02;;;;;;;286.98;25.13;;;20.00;35.60;;;;;;5029612;28;20037;-81
2023/04/10 12:19:29;;;;;;;11.88;5.43;;;19.70;36.90;;;;;;5024226;28;20029;-81
2023/04/10 12:21:57;;;;;;;6.63;4.20;;;19.60;36.50;;;;;;5044947;28;20033;-81
2023/04/10 12:24:43;;;;;;;5.55;4.00;;;19.70;36.90;;;;;;5041140;28;20037;-82
2023/04/10 12:27:16;;;;;;;8.88;4.18;;;20.00;36.60;;;;;;5044988;28;20071;-84
2023/04/10 12:29:42;;;;;;;6.80;4.28;;;20.10;36.20;;;;;;5021050;28;20033;-83
2023/04/10 12:32:08;;;;;;;6.45;4.30;;;19.90;36.40;;;;;;5040028;28;20045;-83
2023/04/10 12:34:35;;;;;;;9.27;4.32;;;19.70;37.30;;;;;;5023240;28;20335;-84
2023/04/10 12:37:01;;;;;;;5.57;3.85;;;19.40;37.20;;;;;;5048754;28;20051;-84
2023/04/10 12:39:27;;;;;;;5.95;3.90;;;19.50;37.20;;;;;;5042570;28;20111;-83
2023/04/10 12:41:52;;;;;;;4.90;3.38;;;19.50;36.20;;;;;;5047219;28;20100;-83